TimeCDT,TemperatureF,Dew PointF,Humidity,Sea Level PressureIn,VisibilityMPH,Wind Direction,Wind SpeedMPH,Gust SpeedMPH,PrecipitationIn,Events,Conditions,WindDirDegrees,DateUTC
12:53 AM,72.0,71.1,97,30.07,10.0,ENE,3.5,-,N/A,,Clear,70,2013-08-19 05:53:00
1:53 AM,72.0,71.1,97,30.05,10.0,Calm,Calm,-,N/A,,Clear,0,2013-08-19 06:53:00
2:53 AM,72.0,71.1,97,30.04,10.0,ENE,3.5,-,N/A,,Clear,70,2013-08-19 07:53:00
3:04 AM,71.6,71.6,100,30.04,10.0,East,3.5,-,N/A,,Scattered Clouds,90,2013-08-19 08:04:00
3:18 AM,71.6,71.6,100,30.04,10.0,East,5.8,-,N/A,,Mostly Cloudy,100,2013-08-19 08:18:00
3:53 AM,72.0,71.1,97,30.03,1.8,East,4.6,-,N/A,,Overcast,100,2013-08-19 08:53:00
4:37 AM,71.6,71.6,100,30.03,0.8,East,4.6,-,N/A,,Mist,90,2013-08-19 09:37:00
4:53 AM,72.0,72.0,100,30.03,0.8,Calm,Calm,-,N/A,,Mist,0,2013-08-19 09:53:00
5:53 AM,72.0,72.0,100,30.04,0.5,Calm,Calm,-,N/A,Fog,Fog,0,2013-08-19 10:53:00
6:53 AM,73.0,73.0,100,30.06,0.2,Calm,Calm,-,N/A,Fog,Fog,0,2013-08-19 11:53:00
7:18 AM,73.4,73.4,100,30.06,1.0,Calm,Calm,-,N/A,,Overcast,0,2013-08-19 12:18:00
7:28 AM,73.4,73.4,100,30.06,3.0,Calm,Calm,-,N/A,,Overcast,0,2013-08-19 12:28:00
7:53 AM,73.9,73.9,100,30.06,6.0,ESE,3.5,-,N/A,,Overcast,110,2013-08-19 12:53:00
8:53 AM,75.9,73.9,94,30.07,10.0,Variable,3.5,-,0.00,,Overcast,0,2013-08-19 13:53:00
9:16 AM,78.8,75.2,89,30.08,10.0,Calm,Calm,-,N/A,,Overcast,0,2013-08-19 14:16:00
9:53 AM,79.0,73.9,84,30.07,10.0,Variable,3.5,-,N/A,,Mostly Cloudy,0,2013-08-19 14:53:00
10:21 AM,80.6,75.2,84,30.08,10.0,ESE,3.5,-,N/A,,Mostly Cloudy,120,2013-08-19 15:21:00
10:38 AM,80.6,75.2,84,30.08,10.0,SSE,4.6,-,N/A,,Scattered Clouds,150,2013-08-19 15:38:00
10:50 AM,80.6,75.2,84,30.09,10.0,South,3.5,-,N/A,,Mostly Cloudy,170,2013-08-19 15:50:00
10:53 AM,82.0,75.0,79,30.09,10.0,Variable,3.5,-,N/A,,Mostly Cloudy,0,2013-08-19 15:53:00
11:19 AM,84.2,75.2,74,30.08,10.0,Calm,Calm,-,N/A,,Scattered Clouds,0,2013-08-19 16:19:00
11:53 AM,84.9,75.0,72,30.06,10.0,SSE,3.5,-,N/A,,Scattered Clouds,150,2013-08-19 16:53:00
12:48 PM,87.8,75.2,66,30.05,10.0,East,3.5,-,N/A,,Mostly Cloudy,80,2013-08-19 17:48:00
12:53 PM,87.1,73.9,65,30.04,10.0,Calm,Calm,-,N/A,,Scattered Clouds,0,2013-08-19 17:53:00
1:02 PM,87.8,73.4,62,30.05,10.0,Calm,Calm,-,N/A,,Mostly Cloudy,0,2013-08-19 18:02:00
1:20 PM,89.6,75.2,62,30.04,10.0,NNW,5.8,-,N/A,,Overcast,340,2013-08-19 18:20:00
1:53 PM,89.1,72.0,57,30.01,10.0,Calm,Calm,-,N/A,,Scattered Clouds,0,2013-08-19 18:53:00
2:53 PM,90.0,73.0,57,29.99,10.0,North,5.8,-,N/A,,Scattered Clouds,350,2013-08-19 19:53:00
3:53 PM,91.0,72.0,53,29.98,10.0,Variable,3.5,-,N/A,,Clear,0,2013-08-19 20:53:00
4:53 PM,82.0,75.0,79,29.99,10.0,West,9.2,-,N/A,,Mostly Cloudy,270,2013-08-19 21:53:00
5:12 PM,82.4,73.4,74,29.99,10.0,West,9.2,-,N/A,Thunderstorm,Scattered Clouds,260,2013-08-19 22:12:00
5:38 PM,80.6,73.4,79,29.99,10.0,SSW,6.9,-,N/A,,Partly Cloudy,200,2013-08-19 22:38:00
5:53 PM,80.1,73.0,79,29.99,10.0,SW,5.8,-,N/A,,Partly Cloudy,220,2013-08-19 22:53:00
6:53 PM,81.0,73.0,77,30.00,10.0,SSW,5.8,-,N/A,,Clear,200,2013-08-19 23:53:00
7:53 PM,79.0,73.0,82,30.02,10.0,East,5.8,-,N/A,,Mostly Cloudy,80,2013-08-20 00:53:00
8:03 PM,78.8,73.4,83,30.03,10.0,East,6.9,-,N/A,Thunderstorm,Scattered Clouds,100,2013-08-20 01:03:00
8:53 PM,77.0,73.0,88,30.04,9.0,SE,8.1,-,0.00,Rain-Thunderstorm,Light Thunderstorms and Rain,140,2013-08-20 01:53:00
9:09 PM,75.2,73.4,94,30.05,7.0,ESE,3.5,-,0.03,Rain,Rain,120,2013-08-20 02:09:00
9:53 PM,75.0,73.0,94,30.04,10.0,East,3.5,-,0.10,Rain,Light Rain,80,2013-08-20 02:53:00
10:26 PM,75.2,73.4,94,30.06,10.0,ENE,6.9,-,0.01,Rain,Light Rain,70,2013-08-20 03:26:00
10:53 PM,75.0,73.0,94,30.06,10.0,ENE,5.8,-,0.01,,Mostly Cloudy,70,2013-08-20 03:53:00
11:53 PM,73.9,73.0,97,30.06,10.0,Calm,Calm,-,N/A,,Partly Cloudy,0,2013-08-20 04:53:00